Time;durP1;ratioP1;P1;durP2;ratioP2;P2;SDS_P1;SDS_P2;PMS_P1;PMS_P2;Temp;Humidity;BMP_temperature;BMP_pressure;BME280_temperature;BME280_humidity;BME280_pressure;Samples;Min_cycle;Max_cycle;Signal;HPM_P1;HPM_P2
2021/08/19 00:00:48;;;;;;;2.60;2.40;;;16.50;99.90;;;;;;6317180;22;20215;-89
2021/08/19 00:03:14;;;;;;;2.53;2.20;;;16.50;99.90;;;;;;6315320;22;20670;-90
2021/08/19 00:05:40;;;;;;;2.83;2.63;;;16.40;99.90;;;;;;6316335;22;20479;-89
2021/08/19 00:08:06;;;;;;;2.80;2.60;;;16.40;99.90;;;;;;6316377;22;20426;-90
2021/08/19 00:10:32;;;;;;;2.63;2.43;;;16.50;99.90;;;;;;6317864;22;20497;-90
2021/08/19 00:12:59;;;;;;;2.83;2.60;;;16.50;99.90;;;;;;6318717;22;20204;-90
2021/08/19 00:15:25;;;;;;;3.80;2.97;;;16.40;99.90;;;;;;6319066;22;20800;-90
2021/08/19 00:17:50;;;;;;;2.43;2.23;;;16.50;99.90;;;;;;6318344;22;20487;-90
2021/08/19 00:20:16;;;;;;;2.50;2.30;;;16.50;99.90;;;;;;6319333;22;20510;-90
2021/08/19 00:22:42;;;;;;;4.47;3.13;;;16.50;99.90;;;;;;6318053;22;20489;-90
2021/08/19 00:25:08;;;;;;;2.50;2.30;;;16.50;99.90;;;;;;6318089;22;20181;-90
2021/08/19 00:27:34;;;;;;;3.00;2.63;;;16.50;99.90;;;;;;6317383;22;20161;-90
2021/08/19 00:30:00;;;;;;;2.20;2.10;;;16.50;99.90;;;;;;6317155;22;20757;-90
2021/08/19 00:32:25;;;;;;;2.50;2.30;;;16.40;99.90;;;;;;6318341;22;20607;-89
2021/08/19 00:34:51;;;;;;;3.13;2.67;;;16.30;99.90;;;;;;6317078;22;20276;-90
2021/08/19 00:37:17;;;;;;;2.60;2.37;;;16.20;99.90;;;;;;6317962;22;20197;-90
2021/08/19 00:39:44;;;;;;;2.37;2.17;;;16.30;99.90;;;;;;6317863;22;20411;-92
2021/08/19 00:42:09;;;;;;;2.10;2.00;;;16.30;99.90;;;;;;6318299;22;20196;-92
2021/08/19 00:44:41;;;;;;;2.23;2.13;;;16.30;99.90;;;;;;6318031;22;20384;-91
2021/08/19 00:47:08;;;;;;;1.97;1.87;;;16.30;99.90;;;;;;6317743;22;20180;-90
2021/08/19 00:49:36;;;;;;;3.33;2.70;;;16.30;99.90;;;;;;6319857;22;20427;-91
2021/08/19 00:52:07;;;;;;;2.60;2.40;;;16.30;99.90;;;;;;6318361;22;20692;-90
2021/08/19 00:54:38;;;;;;;2.50;2.30;;;16.20;99.90;;;;;;6318942;22;20396;-90
2021/08/19 00:57:06;;;;;;;2.20;2.00;;;16.20;99.90;;;;;;6316952;22;20439;-90
2021/08/19 00:59:36;;;;;;;2.50;2.30;;;16.20;99.90;;;;;;6318177;22;20858;-91
2021/08/19 01:02:03;;;;;;;2.70;2.50;;;16.30;99.90;;;;;;6316243;22;20400;-91
2021/08/19 01:04:34;;;;;;;2.27;2.07;;;16.30;99.90;;;;;;6315422;22;20395;-90
2021/08/19 01:07:00;;;;;;;2.40;2.20;;;16.30;99.90;;;;;;6317282;22;20970;-90
2021/08/19 01:09:26;;;;;;;2.63;2.43;;;16.20;99.90;;;;;;6287751;22;20388;-91
2021/08/19 01:11:54;;;;;;;2.40;2.20;;;16.20;99.90;;;;;;6317812;22;20867;-91
2021/08/19 01:14:19;;;;;;;2.30;2.00;;;16.30;99.90;;;;;;6293807;22;20483;-89
2021/08/19 01:16:46;;;;;;;2.60;2.40;;;16.30;99.90;;;;;;6319835;22;20467;-90
2021/08/19 01:19:17;;;;;;;2.57;2.37;;;16.20;99.90;;;;;;6317286;22;20185;-91
2021/08/19 01:21:44;;;;;;;2.30;2.10;;;16.20;99.90;;;;;;6319463;22;20450;-90
2021/08/19 01:24:10;;;;;;;2.33;2.20;;;16.10;99.90;;;;;;6317670;22;20398;-91
2021/08/19 01:26:38;;;;;;;2.33;2.00;;;16.20;99.90;;;;;;6315101;22;20393;-90
2021/08/19 01:29:04;;;;;;;4.03;1.80;;;16.10;99.90;;;;;;6317623;22;20387;-90
2021/08/19 01:31:31;;;;;;;2.00;1.90;;;16.10;99.90;;;;;;6314766;22;20839;-90
2021/08/19 01:33:57;;;;;;;3.20;2.20;;;16.10;99.90;;;;;;6317273;22;20440;-91
2021/08/19 01:36:23;;;;;;;2.80;2.60;;;16.10;99.90;;;;;;6319072;22;20929;-91
2021/08/19 01:38:51;;;;;;;2.57;2.37;;;16.10;99.90;;;;;;6292655;22;20181;-91
2021/08/19 01:41:17;;;;;;;2.00;1.83;;;16.20;99.90;;;;;;6317730;22;20439;-92
2021/08/19 01:43:45;;;;;;;2.37;1.97;;;16.20;99.90;;;;;;6316295;22;20877;-91
2021/08/19 01:46:13;;;;;;;2.30;2.10;;;16.20;99.90;;;;;;6316864;22;20415;-92
2021/08/19 01:48:43;;;;;;;3.40;2.60;;;16.20;99.90;;;;;;6316525;22;20387;-91
2021/08/19 01:51:22;;;;;;;2.50;2.30;;;16.20;99.90;;;;;;6318196;22;20404;-90
2021/08/19 01:53:50;;;;;;;2.60;2.20;;;16.20;99.90;;;;;;6319146;22;20384;-90
2021/08/19 01:56:18;;;;;;;2.70;2.33;;;16.20;99.90;;;;;;6317950;22;20940;-90
2021/08/19 01:58:45;;;;;;;2.70;1.83;;;16.20;99.90;;;;;;6316574;22;20399;-90
2021/08/19 02:01:10;;;;;;;3.80;2.30;;;16.30;99.90;;;;;;6314700;22;20458;-90
2021/08/19 02:03:36;;;;;;;2.37;2.17;;;16.20;99.90;;;;;;6314804;22;20392;-90
2021/08/19 02:06:03;;;;;;;2.20;2.10;;;16.10;99.90;;;;;;6318727;22;20643;-90
2021/08/19 02:08:30;;;;;;;2.70;2.20;;;16.10;99.90;;;;;;6318218;22;20423;-90
2021/08/19 02:10:57;;;;;;;2.67;2.10;;;16.10;99.90;;;;;;6318421;22;20801;-90
2021/08/19 02:13:23;;;;;;;2.20;2.00;;;16.10;99.90;;;;;;6320237;22;20798;-91
2021/08/19 02:15:51;;;;;;;3.83;2.30;;;16.10;99.90;;;;;;6315956;22;20456;-90
2021/08/19 02:18:18;;;;;;;3.50;2.00;;;16.00;99.90;;;;;;6317196;22;20170;-89
2021/08/19 02:20:43;;;;;;;2.47;2.27;;;16.10;99.90;;;;;;6318696;22;20513;-90
2021/08/19 02:23:10;;;;;;;2.33;2.13;;;16.10;99.90;;;;;;6317386;22;20460;-89
2021/08/19 02:25:36;;;;;;;3.07;2.77;;;16.00;99.90;;;;;;6319359;22;20493;-90
2021/08/19 02:28:02;;;;;;;3.27;2.93;;;16.00;99.90;;;;;;6315980;22;20477;-90
2021/08/19 02:30:28;;;;;;;2.80;2.60;;;16.00;99.90;;;;;;6318419;22;20834;-90
2021/08/19 02:32:57;;;;;;;2.23;2.03;;;16.00;99.90;;;;;;6318128;22;20624;-89
2021/08/19 02:35:25;;;;;;;2.77;2.57;;;16.00;99.90;;;;;;6316781;22;20645;-90
2021/08/19 02:37:53;;;;;;;2.57;2.37;;;16.00;99.90;;;;;;6320553;22;20909;-90
2021/08/19 02:40:22;;;;;;;2.50;2.30;;;16.00;99.90;;;;;;6295173;22;20392;-90
2021/08/19 02:42:49;;;;;;;2.83;2.63;;;16.00;99.90;;;;;;6317098;22;20392;-90
2021/08/19 02:45:23;;;;;;;2.60;2.40;;;16.00;99.90;;;;;;6293930;22;20391;-89
2021/08/19 02:47:50;;;;;;;3.07;2.80;;;16.00;99.90;;;;;;6294847;22;20384;-90
2021/08/19 02:50:17;;;;;;;2.53;2.33;;;15.90;99.90;;;;;;6316147;22;20399;-90
2021/08/19 02:52:43;;;;;;;2.87;2.67;;;15.90;99.90;;;;;;6316679;22;20562;-90
2021/08/19 02:55:10;;;;;;;2.57;2.37;;;15.90;99.90;;;;;;6321765;22;20483;-90
2021/08/19 02:57:36;;;;;;;3.50;3.10;;;16.00;99.90;;;;;;6315796;22;20406;-91
2021/08/19 03:00:03;;;;;;;2.87;2.53;;;15.90;99.90;;;;;;6318311;22;20431;-91
2021/08/19 03:02:29;;;;;;;2.83;2.63;;;16.00;99.90;;;;;;6295013;22;20827;-89
2021/08/19 03:04:56;;;;;;;2.80;2.60;;;16.00;99.90;;;;;;6292778;22;20482;-89
2021/08/19 03:07:23;;;;;;;3.10;2.90;;;16.00;99.90;;;;;;6318808;22;20207;-89
2021/08/19 03:09:49;;;;;;;2.73;2.53;;;16.00;99.90;;;;;;6314056;22;20415;-90
2021/08/19 03:12:16;;;;;;;3.40;2.80;;;16.00;99.90;;;;;;6317858;22;20402;-89
2021/08/19 03:14:47;;;;;;;3.20;2.90;;;15.90;99.90;;;;;;6294952;22;20404;-90
2021/08/19 03:17:12;;;;;;;2.80;2.60;;;15.90;99.90;;;;;;6291299;22;20447;-90
2021/08/19 03:19:39;;;;;;;2.77;2.53;;;15.90;99.90;;;;;;6293631;22;20485;-90
2021/08/19 03:22:05;;;;;;;2.50;2.30;;;16.00;99.90;;;;;;6320681;22;20392;-90
2021/08/19 03:24:31;;;;;;;2.47;2.30;;;15.80;99.90;;;;;;6318956;22;20196;-91
2021/08/19 03:26:58;;;;;;;2.90;2.70;;;15.90;99.90;;;;;;6318970;22;20665;-91
2021/08/19 03:29:24;;;;;;;3.23;3.03;;;15.90;99.90;;;;;;6317243;22;20396;-92
2021/08/19 03:31:50;;;;;;;2.70;2.50;;;15.80;99.90;;;;;;6316883;22;20403;-90
2021/08/19 03:34:16;;;;;;;2.97;2.73;;;15.90;99.90;;;;;;6318475;22;20416;-93
2021/08/19 03:36:42;;;;;;;2.27;2.10;;;15.90;99.90;;;;;;6318656;22;20475;-91
2021/08/19 03:39:07;;;;;;;2.53;2.33;;;15.90;99.90;;;;;;6317046;22;20165;-90
2021/08/19 03:41:34;;;;;;;2.87;2.67;;;15.80;99.90;;;;;;6320156;22;20435;-90
2021/08/19 03:44:03;;;;;;;2.57;2.40;;;15.80;99.90;;;;;;6319986;22;20169;-90
2021/08/19 03:46:32;;;;;;;3.00;2.40;;;15.90;99.90;;;;;;6295244;22;20404;-90
2021/08/19 03:49:16;;;;;;;2.70;2.50;;;15.80;99.90;;;;;;6296598;22;20427;-90
2021/08/19 03:51:41;;;;;;;2.93;2.60;;;15.80;99.90;;;;;;6293657;22;20408;-90
2021/08/19 03:54:07;;;;;;;2.50;2.30;;;15.80;99.90;;;;;;6321034;22;20210;-90
2021/08/19 03:56:36;;;;;;;2.60;2.40;;;15.80;99.90;;;;;;6320906;22;20220;-91
2021/08/19 03:59:01;;;;;;;3.77;2.37;;;15.80;99.90;;;;;;6319399;22;20165;-90
2021/08/19 04:01:27;;;;;;;2.93;2.73;;;15.90;99.90;;;;;;6315361;22;20414;-89
2021/08/19 04:03:53;;;;;;;3.07;2.77;;;15.90;99.90;;;;;;6320266;22;20504;-92
2021/08/19 04:06:18;;;;;;;3.00;2.80;;;15.80;99.90;;;;;;6319715;22;20446;-89
2021/08/19 04:08:44;;;;;;;2.57;2.37;;;15.80;99.90;;;;;;6292534;22;20492;-89
2021/08/19 04:11:10;;;;;;;5.10;2.57;;;15.80;99.90;;;;;;6319506;22;20501;-92
2021/08/19 04:13:43;;;;;;;3.13;2.83;;;15.90;99.90;;;;;;6318980;22;20399;-93
2021/08/19 04:16:12;;;;;;;2.73;2.53;;;15.80;99.90;;;;;;6320141;22;20632;-92
2021/08/19 04:18:38;;;;;;;3.33;2.63;;;15.90;99.90;;;;;;6293809;22;20395;-92
2021/08/19 04:21:04;;;;;;;2.73;2.53;;;15.80;99.90;;;;;;6319480;22;20395;-92
2021/08/19 04:23:30;;;;;;;2.83;2.63;;;15.90;99.90;;;;;;6318739;22;20294;-93
2021/08/19 04:25:56;;;;;;;2.50;2.30;;;15.90;99.90;;;;;;6294105;22;20384;-88
2021/08/19 04:28:25;;;;;;;3.23;2.87;;;15.80;99.90;;;;;;6314975;22;20402;-88
2021/08/19 04:30:51;;;;;;;3.97;2.50;;;15.90;99.90;;;;;;6317456;22;20176;-88
2021/08/19 04:33:18;;;;;;;2.63;2.43;;;15.90;99.90;;;;;;6319925;22;20479;-88
2021/08/19 04:35:43;;;;;;;2.93;2.73;;;15.80;99.90;;;;;;6321212;22;20588;-89
2021/08/19 04:38:09;;;;;;;2.63;2.43;;;15.90;99.90;;;;;;6320885;22;20419;-88
2021/08/19 04:40:35;;;;;;;4.47;2.60;;;15.90;99.90;;;;;;6319485;22;20169;-87
2021/08/19 04:43:01;;;;;;;3.10;2.90;;;15.90;99.90;;;;;;6316667;22;20153;-87
2021/08/19 04:45:27;;;;;;;3.07;2.80;;;15.80;99.90;;;;;;6318548;22;20435;-88
2021/08/19 04:47:52;;;;;;;2.93;2.73;;;15.80;99.90;;;;;;6317270;22;20153;-88
2021/08/19 04:50:18;;;;;;;2.90;2.60;;;15.80;99.90;;;;;;6317830;22;20533;-87
2021/08/19 04:52:44;;;;;;;2.40;2.20;;;15.80;99.90;;;;;;6319663;22;20240;-87
2021/08/19 04:55:09;;;;;;;3.53;3.23;;;15.90;99.90;;;;;;6320402;22;20248;-88
2021/08/19 04:57:35;;;;;;;4.50;2.53;;;15.80;99.90;;;;;;6320648;22;20165;-88
2021/08/19 05:00:01;;;;;;;2.63;2.43;;;15.90;99.90;;;;;;6318259;22;20484;-87
2021/08/19 05:02:27;;;;;;;2.80;2.20;;;15.80;99.90;;;;;;6319782;22;20736;-88
2021/08/19 05:04:54;;;;;;;2.80;2.60;;;15.80;99.90;;;;;;6318446;22;20416;-87
2021/08/19 05:07:20;;;;;;;3.00;2.70;;;15.80;99.90;;;;;;6317514;22;20165;-87
2021/08/19 05:09:46;;;;;;;2.83;2.30;;;15.90;99.90;;;;;;6320087;22;20392;-89
2021/08/19 05:12:11;;;;;;;2.90;2.70;;;15.80;99.90;;;;;;6318832;22;20504;-88
2021/08/19 05:14:40;;;;;;;3.83;2.57;;;15.80;99.90;;;;;;6319640;22;20533;-87
2021/08/19 05:17:05;;;;;;;2.80;2.20;;;15.90;99.90;;;;;;6316939;22;20190;-87
2021/08/19 05:19:33;;;;;;;3.23;2.80;;;15.90;99.90;;;;;;6318433;22;20403;-87
2021/08/19 05:21:59;;;;;;;2.50;2.30;;;15.90;99.90;;;;;;6318318;22;20623;-87
2021/08/19 05:24:25;;;;;;;2.57;2.40;;;15.90;99.90;;;;;;6292047;22;20396;-87
2021/08/19 05:26:50;;;;;;;2.10;2.00;;;15.90;99.90;;;;;;6318760;22;20404;-88
2021/08/19 05:29:16;;;;;;;2.20;2.10;;;15.90;99.90;;;;;;6318301;22;20161;-89
2021/08/19 05:31:41;;;;;;;2.40;2.20;;;16.00;99.90;;;;;;6318609;22;20177;-87
2021/08/19 05:34:10;;;;;;;2.70;2.50;;;16.00;99.90;;;;;;6316059;22;20626;-87
2021/08/19 05:36:36;;;;;;;2.50;2.30;;;16.00;99.90;;;;;;6317414;22;20220;-88
2021/08/19 05:39:04;;;;;;;2.60;2.40;;;16.00;99.90;;;;;;6318599;22;20408;-88
2021/08/19 05:41:30;;;;;;;3.60;2.20;;;16.10;99.90;;;;;;6317184;22;20404;-87
2021/08/19 05:44:01;;;;;;;2.40;2.20;;;16.10;99.90;;;;;;6318273;22;20384;-87
2021/08/19 05:46:27;;;;;;;2.80;2.17;;;16.10;99.90;;;;;;6319501;22;20404;-87
2021/08/19 05:48:53;;;;;;;2.20;2.10;;;16.00;99.90;;;;;;6318728;22;20441;-88
2021/08/19 05:51:19;;;;;;;2.40;2.20;;;16.00;99.90;;;;;;6315704;22;20611;-88
2021/08/19 05:53:45;;;;;;;2.40;2.20;;;16.10;99.90;;;;;;6319138;22;20404;-88
2021/08/19 05:56:10;;;;;;;1.97;1.87;;;16.20;99.90;;;;;;6318473;22;20238;-87
2021/08/19 05:58:36;;;;;;;2.30;2.00;;;16.20;99.90;;;;;;6317275;22;20532;-88
2021/08/19 06:01:02;;;;;;;2.33;2.17;;;16.20;99.90;;;;;;6317211;22;20171;-88
2021/08/19 06:03:28;;;;;;;1.97;1.87;;;16.20;99.90;;;;;;6318441;22;20153;-88
2021/08/19 06:05:53;;;;;;;2.00;1.90;;;16.20;99.90;;;;;;6315942;22;20407;-86
2021/08/19 06:08:19;;;;;;;2.10;1.97;;;16.20;99.90;;;;;;6316034;22;20161;-87
2021/08/19 06:10:45;;;;;;;2.20;2.10;;;16.20;99.90;;;;;;6316406;22;20218;-87
2021/08/19 06:13:11;;;;;;;2.30;2.10;;;16.20;99.90;;;;;;6317015;22;20165;-87
2021/08/19 06:15:37;;;;;;;2.30;2.10;;;16.30;99.90;;;;;;6319463;22;20964;-87
2021/08/19 06:18:04;;;;;;;2.10;1.90;;;16.40;99.90;;;;;;6318450;22;20726;-87
2021/08/19 06:20:30;;;;;;;2.17;2.07;;;16.30;99.90;;;;;;6318090;22;20162;-88
2021/08/19 06:22:59;;;;;;;3.70;2.50;;;16.20;99.90;;;;;;6289174;22;20699;-90
2021/08/19 06:25:24;;;;;;;2.47;2.27;;;16.10;99.90;;;;;;6284563;22;20399;-90
2021/08/19 06:27:51;;;;;;;2.40;2.20;;;16.10;99.90;;;;;;6313523;22;20388;-90
2021/08/19 06:30:16;;;;;;;3.50;2.00;;;16.20;99.90;;;;;;6317541;22;20185;-89
2021/08/19 06:32:42;;;;;;;2.37;2.17;;;16.30;99.90;;;;;;6313832;22;20399;-89
2021/08/19 06:35:13;;;;;;;2.13;1.83;;;16.30;99.90;;;;;;6312989;22;20197;-91
2021/08/19 06:37:38;;;;;;;2.20;1.80;;;16.40;99.90;;;;;;6316936;22;20405;-90
2021/08/19 06:40:05;;;;;;;2.90;1.90;;;16.50;99.90;;;;;;6318790;22;20388;-88
2021/08/19 06:42:32;;;;;;;2.17;1.97;;;16.60;99.90;;;;;;6320838;22;20400;-92
2021/08/19 06:44:57;;;;;;;2.50;2.10;;;16.50;99.90;;;;;;6317505;22;20396;-89
2021/08/19 06:47:23;;;;;;;2.40;1.83;;;16.60;99.90;;;;;;6318657;22;20972;-87
2021/08/19 06:49:49;;;;;;;2.47;2.23;;;16.60;99.90;;;;;;6316853;22;20721;-88
2021/08/19 06:52:15;;;;;;;1.93;1.83;;;16.70;99.90;;;;;;6319068;22;20173;-88
2021/08/19 06:54:41;;;;;;;2.77;2.03;;;16.80;99.90;;;;;;6317526;22;20527;-88
2021/08/19 06:57:07;;;;;;;1.73;1.63;;;17.00;99.90;;;;;;6292789;22;20205;-90
2021/08/19 06:59:33;;;;;;;1.60;1.50;;;17.00;99.90;;;;;;6317176;22;20395;-89
2021/08/19 07:01:58;;;;;;;2.03;1.60;;;17.10;99.90;;;;;;6314242;22;20271;-90
2021/08/19 07:04:24;;;;;;;3.40;1.57;;;17.20;99.90;;;;;;6318586;22;20984;-90
2021/08/19 07:06:52;;;;;;;2.73;1.73;;;17.30;99.90;;;;;;6317424;22;20166;-90
2021/08/19 07:09:17;;;;;;;2.00;1.80;;;17.40;99.90;;;;;;6319157;22;20304;-93
2021/08/19 07:11:44;;;;;;;2.60;1.80;;;17.30;99.90;;;;;;6321896;22;20436;-93
2021/08/19 07:14:10;;;;;;;1.87;1.70;;;17.50;99.90;;;;;;6322552;22;20738;-88
2021/08/19 07:16:37;;;;;;;2.03;1.90;;;17.60;99.90;;;;;;6322294;22;20440;-92
2021/08/19 07:19:03;;;;;;;2.27;1.90;;;17.50;99.90;;;;;;6319903;22;20196;-91
2021/08/19 07:21:29;;;;;;;2.27;1.60;;;17.50;99.90;;;;;;6320024;22;20410;-93
2021/08/19 07:23:55;;;;;;;2.27;1.70;;;17.50;99.90;;;;;;6318882;22;20722;-92
2021/08/19 07:26:22;;;;;;;2.13;1.70;;;17.60;99.90;;;;;;6317811;22;20161;-92
2021/08/19 07:28:49;;;;;;;3.90;1.80;;;17.50;99.90;;;;;;6320711;22;20166;-92
2021/08/19 07:31:15;;;;;;;1.87;1.77;;;17.70;99.90;;;;;;6317547;22;20461;-89
2021/08/19 07:33:41;;;;;;;1.93;1.77;;;17.80;99.90;;;;;;6320192;22;20761;-88
2021/08/19 07:36:07;;;;;;;1.93;1.83;;;17.60;99.90;;;;;;6314248;22;20196;-89
2021/08/19 07:38:33;;;;;;;1.80;1.70;;;17.70;99.90;;;;;;6322164;22;20177;-90
2021/08/19 07:40:59;;;;;;;2.90;1.70;;;17.90;99.90;;;;;;6318317;22;20778;-89
2021/08/19 07:43:24;;;;;;;1.77;1.40;;;18.00;99.90;;;;;;6319346;22;20513;-88
2021/08/19 07:45:50;;;;;;;1.97;1.83;;;18.20;99.90;;;;;;6321970;22;20228;-88
2021/08/19 07:48:16;;;;;;;1.90;1.80;;;18.40;99.90;;;;;;6317659;22;20176;-87
2021/08/19 07:50:42;;;;;;;1.60;1.47;;;18.40;99.90;;;;;;6316018;22;21039;-88
2021/08/19 07:53:11;;;;;;;4.50;1.90;;;18.40;99.90;;;;;;6316821;22;20180;-88
2021/08/19 07:55:37;;;;;;;2.40;1.50;;;18.40;99.90;;;;;;6315645;22;21169;-88
2021/08/19 07:58:02;;;;;;;2.17;1.50;;;18.70;99.90;;;;;;6319574;22;20462;-88
2021/08/19 08:00:32;;;;;;;1.70;1.60;;;18.80;99.90;;;;;;6319055;22;20152;-89
2021/08/19 08:02:59;;;;;;;1.83;1.70;;;18.90;99.90;;;;;;6320248;22;20193;-89
2021/08/19 08:05:26;;;;;;;1.90;1.80;;;18.90;99.90;;;;;;6319044;22;20404;-88
2021/08/19 08:07:59;;;;;;;1.90;1.80;;;18.80;99.90;;;;;;6320258;22;20498;-89
2021/08/19 08:10:27;;;;;;;1.80;1.70;;;18.80;99.90;;;;;;6319671;22;20933;-89
2021/08/19 08:12:52;;;;;;;1.33;1.23;;;19.10;99.90;;;;;;6319559;22;20412;-88
2021/08/19 08:15:18;;;;;;;1.93;1.73;;;19.50;99.90;;;;;;6320620;22;20392;-89
2021/08/19 08:17:44;;;;;;;2.90;1.83;;;19.30;99.90;;;;;;6320308;22;20165;-89
2021/08/19 08:20:11;;;;;;;1.70;1.60;;;19.10;99.90;;;;;;6319880;22;20166;-88
2021/08/19 08:22:40;;;;;;;2.10;2.00;;;19.10;99.90;;;;;;6318837;22;20157;-88
2021/08/19 08:25:07;;;;;;;1.77;1.67;;;19.20;99.90;;;;;;6319680;22;20384;-90
2021/08/19 08:27:33;;;;;;;2.13;2.03;;;19.00;99.90;;;;;;6320190;22;20403;-87
2021/08/19 08:29:59;;;;;;;1.63;1.50;;;19.20;99.90;;;;;;6318042;22;20392;-86
2021/08/19 08:32:26;;;;;;;2.07;1.97;;;19.30;99.90;;;;;;6317236;22;20153;-87
2021/08/19 08:34:51;;;;;;;2.60;2.40;;;19.30;99.90;;;;;;6321043;22;20172;-86
2021/08/19 08:37:17;;;;;;;2.10;1.73;;;19.50;99.90;;;;;;6320538;22;20483;-86
2021/08/19 08:39:44;;;;;;;3.50;2.00;;;19.70;99.90;;;;;;6321885;22;20819;-86
2021/08/19 08:42:12;;;;;;;2.43;2.13;;;19.80;99.90;;;;;;6321176;22;20154;-86
2021/08/19 08:44:39;;;;;;;1.70;1.60;;;19.80;99.90;;;;;;6321468;22;20932;-86
2021/08/19 08:47:05;;;;;;;2.80;1.80;;;20.10;99.90;;;;;;6319602;22;20437;-86
2021/08/19 08:49:31;;;;;;;2.40;2.07;;;20.10;99.90;;;;;;6320342;22;20400;-87
2021/08/19 08:52:00;;;;;;;2.87;1.73;;;19.90;99.90;;;;;;6320267;22;20638;-86
2021/08/19 08:54:28;;;;;;;3.93;2.00;;;19.80;99.90;;;;;;6320286;22;20473;-87
2021/08/19 08:56:58;;;;;;;2.20;2.00;;;19.70;99.90;;;;;;6321136;22;20550;-87
2021/08/19 08:59:25;;;;;;;2.70;2.13;;;19.40;99.90;;;;;;6320267;22;20392;-86
2021/08/19 09:01:53;;;;;;;1.80;1.70;;;19.60;99.90;;;;;;6320097;22;20427;-86
2021/08/19 09:04:19;;;;;;;2.03;1.70;;;20.00;99.90;;;;;;6319344;22;20762;-85
2021/08/19 09:06:45;;;;;;;2.10;1.90;;;20.80;99.90;;;;;;6317393;22;20384;-86
2021/08/19 09:09:16;;;;;;;2.03;1.83;;;21.30;99.90;;;;;;6319547;22;20417;-87
2021/08/19 09:11:47;;;;;;;1.87;1.70;;;21.30;99.90;;;;;;6295402;22;20745;-86
2021/08/19 09:14:20;;;;;;;1.70;1.60;;;21.50;99.90;;;;;;6317099;22;20396;-87
2021/08/19 09:16:47;;;;;;;1.53;1.43;;;22.00;99.90;;;;;;6319588;22;20443;-87
2021/08/19 09:19:15;;;;;;;2.43;1.90;;;22.10;99.90;;;;;;6319888;22;21020;-87
2021/08/19 09:21:49;;;;;;;6.13;2.07;;;21.40;99.90;;;;;;6319751;22;20403;-86
2021/08/19 09:24:20;;;;;;;2.17;1.80;;;20.70;99.90;;;;;;6315476;22;20399;-86
2021/08/19 09:26:47;;;;;;;1.93;1.83;;;20.30;99.90;;;;;;6321530;22;20456;-86
2021/08/19 09:29:25;;;;;;;1.87;1.77;;;20.00;99.90;;;;;;6321571;22;20400;-86
2021/08/19 09:32:11;;;;;;;1.93;1.60;;;19.60;99.90;;;;;;6321430;22;20388;-85
2021/08/19 09:34:38;;;;;;;1.70;1.60;;;19.30;99.90;;;;;;6320836;22;20476;-86
2021/08/19 09:37:08;;;;;;;2.77;1.77;;;19.30;99.90;;;;;;6318951;22;20439;-86
2021/08/19 09:39:38;;;;;;;1.50;1.40;;;19.40;99.90;;;;;;6320523;22;20388;-85
2021/08/19 09:42:04;;;;;;;2.07;1.60;;;19.40;99.90;;;;;;6295453;22;20835;-85
2021/08/19 09:44:32;;;;;;;2.77;2.50;;;19.40;99.90;;;;;;6321335;22;20460;-85
2021/08/19 09:46:59;;;;;;;2.10;1.90;;;19.50;99.90;;;;;;6293702;22;20411;-85
2021/08/19 09:49:30;;;;;;;2.60;1.93;;;19.60;99.90;;;;;;6321341;22;20438;-86
2021/08/19 09:52:06;;;;;;;1.70;1.57;;;19.90;99.90;;;;;;6318518;22;20415;-86
2021/08/19 09:54:34;;;;;;;1.67;1.50;;;20.00;99.90;;;;;;6319257;22;20415;-87
2021/08/19 09:57:00;;;;;;;1.90;1.70;;;20.10;99.90;;;;;;6316485;22;20440;-87
2021/08/19 09:59:33;;;;;;;1.63;1.53;;;20.30;99.90;;;;;;6319529;22;20678;-86
2021/08/19 10:01:59;;;;;;;2.53;1.87;;;20.60;99.90;;;;;;6318879;22;20403;-87
2021/08/19 10:04:25;;;;;;;1.80;1.70;;;20.90;99.90;;;;;;6319429;22;20865;-86
2021/08/19 10:06:55;;;;;;;31.83;28.90;;;21.80;99.90;;;;;;6319845;22;20307;-87
2021/08/19 10:09:22;;;;;;;4.43;1.90;;;22.20;99.90;;;;;;6292983;22;20388;-87
2021/08/19 10:11:49;;;;;;;1.90;1.80;;;22.40;99.90;;;;;;6319145;22;20403;-87
2021/08/19 10:14:20;;;;;;;1.97;1.77;;;22.10;99.90;;;;;;6318722;22;20388;-87
2021/08/19 10:16:49;;;;;;;1.67;1.57;;;21.50;99.90;;;;;;6318461;22;20462;-87
2021/08/19 10:19:36;;;;;;;2.40;1.80;;;21.20;99.90;;;;;;6291749;22;20385;-87
2021/08/19 10:22:18;;;;;;;1.77;1.50;;;21.00;99.90;;;;;;6320697;22;20391;-87
2021/08/19 10:24:52;;;;;;;1.73;1.60;;;20.80;99.90;;;;;;6320920;22;20771;-87
2021/08/19 10:27:23;;;;;;;3.23;1.53;;;21.00;99.90;;;;;;6319453;22;20467;-87
2021/08/19 10:29:55;;;;;;;2.73;1.77;;;20.80;99.90;;;;;;6320835;22;20388;-87
2021/08/19 10:32:34;;;;;;;1.77;1.63;;;20.70;99.90;;;;;;6296201;22;21038;-86
2021/08/19 10:35:00;;;;;;;1.97;1.73;;;20.80;99.90;;;;;;6318804;22;20384;-86
2021/08/19 10:37:46;;;;;;;2.00;1.80;;;21.20;99.90;;;;;;6294003;22;20756;-86
2021/08/19 10:40:22;;;;;;;1.70;1.60;;;21.80;99.90;;;;;;6289899;22;20457;-87
2021/08/19 10:42:56;;;;;;;1.37;1.20;;;21.70;99.90;;;;;;6295269;22;20890;-86
2021/08/19 10:45:27;;;;;;;2.13;1.93;;;21.60;99.90;;;;;;6320439;22;20398;-86
2021/08/19 10:48:06;;;;;;;1.43;1.33;;;21.80;99.90;;;;;;6294908;22;20419;-85
2021/08/19 10:50:38;;;;;;;2.00;1.80;;;22.20;99.90;;;;;;6296483;22;20861;-85
2021/08/19 10:53:13;;;;;;;2.23;1.50;;;22.40;99.90;;;;;;6322606;22;20483;-85
2021/08/19 10:55:47;;;;;;;1.53;1.43;;;22.70;99.90;;;;;;6296018;22;20470;-86
2021/08/19 10:58:24;;;;;;;1.73;1.63;;;23.20;99.90;;;;;;6321247;22;20387;-85
2021/08/19 11:00:51;;;;;;;1.60;1.50;;;23.40;99.90;;;;;;6293298;22;20402;-86
2021/08/19 11:03:35;;;;;;;2.10;1.63;;;23.30;99.90;;;;;;6322260;22;20478;-87
2021/08/19 11:06:02;;;;;;;2.67;1.50;;;23.30;99.90;;;;;;6294301;22;20449;-88
2021/08/19 11:08:52;;;;;;;1.33;1.23;;;23.30;99.90;;;;;;6320264;22;20495;-86
2021/08/19 11:11:26;;;;;;;3.47;1.73;;;23.10;99.90;;;;;;6293873;22;20400;-85
2021/08/19 11:14:18;;;;;;;2.80;1.57;;;22.30;99.90;;;;;;6292610;22;20749;-86
2021/08/19 11:16:58;;;;;;;3.00;1.67;;;22.10;99.90;;;;;;6294969;22;20435;-86
2021/08/19 11:19:28;;;;;;;1.47;1.37;;;22.30;99.90;;;;;;6320594;22;20392;-86
2021/08/19 11:21:56;;;;;;;1.83;1.73;;;22.80;99.90;;;;;;6321774;22;20404;-86
2021/08/19 11:24:26;;;;;;;1.20;1.10;;;22.10;99.90;;;;;;6294263;22;21003;-87
2021/08/19 11:27:10;;;;;;;1.07;1.07;;;21.80;98.50;;;;;;6321612;22;20397;-89
2021/08/19 11:30:17;;;;;;;3.03;1.60;;;21.90;98.60;;;;;;6321236;22;20503;-88
2021/08/19 11:32:43;;;;;;;1.53;1.00;;;22.00;98.30;;;;;;6290423;22;20404;-91
2021/08/19 11:35:10;;;;;;;1.40;1.10;;;22.00;97.30;;;;;;6321877;22;20940;-87
2021/08/19 11:37:36;;;;;;;1.70;1.60;;;22.00;97.10;;;;;;6321438;22;20221;-89
2021/08/19 11:40:03;;;;;;;1.20;1.10;;;22.00;97.40;;;;;;6319389;22;20474;-89
2021/08/19 11:42:34;;;;;;;1.27;1.17;;;21.80;97.10;;;;;;6320680;22;20407;-88
2021/08/19 11:45:45;;;;;;;1.07;1.07;;;21.70;96.70;;;;;;6321750;22;20465;-89
2021/08/19 11:48:17;;;;;;;1.80;1.20;;;22.00;96.90;;;;;;6294885;22;21027;-89
2021/08/19 11:50:42;;;;;;;1.00;0.90;;;22.40;96.10;;;;;;6321543;22;20428;-88
2021/08/19 11:53:08;;;;;;;1.20;1.10;;;22.50;95.70;;;;;;6322312;22;20403;-88
2021/08/19 11:55:37;;;;;;;0.90;0.90;;;22.60;95.00;;;;;;6323441;22;20169;-87
2021/08/19 11:58:54;;;;;;;1.13;1.03;;;22.30;94.60;;;;;;6321964;22;20489;-89
2021/08/19 12:01:24;;;;;;;1.00;1.00;;;22.10;95.60;;;;;;6295916;22;20476;-89
2021/08/19 12:03:49;;;;;;;1.00;1.00;;;22.40;95.20;;;;;;6320730;22;21346;-88
2021/08/19 12:06:18;;;;;;;0.87;0.80;;;22.80;95.30;;;;;;6319738;22;20490;-89
2021/08/19 12:08:57;;;;;;;1.00;1.00;;;23.10;95.50;;;;;;6320478;22;20170;-90
2021/08/19 12:11:26;;;;;;;0.73;0.73;;;23.50;95.10;;;;;;6322145;22;20392;-89
2021/08/19 12:13:53;;;;;;;1.37;1.27;;;23.70;95.20;;;;;;6318978;22;20720;-89
2021/08/19 12:16:21;;;;;;;0.70;0.70;;;23.40;94.70;;;;;;6320568;22;20530;-88
2021/08/19 12:19:09;;;;;;;0.90;0.90;;;23.10;95.10;;;;;;6321197;22;20916;-89
2021/08/19 12:21:37;;;;;;;1.10;1.00;;;22.80;95.60;;;;;;6320332;22;20398;-89
2021/08/19 12:24:14;;;;;;;1.20;1.10;;;22.70;96.10;;;;;;6321032;22;20414;-88
2021/08/19 12:26:40;;;;;;;0.90;0.90;;;22.80;96.00;;;;;;6322060;22;20411;-89
2021/08/19 12:29:06;;;;;;;1.00;1.00;;;23.10;95.20;;;;;;6320659;22;20411;-90
2021/08/19 12:31:51;;;;;;;1.27;1.17;;;23.20;95.40;;;;;;6320946;22;20396;-89
2021/08/19 12:34:21;;;;;;;1.00;0.90;;;23.00;95.90;;;;;;6319948;22;20165;-87
2021/08/19 12:36:47;;;;;;;0.80;0.80;;;23.00;95.00;;;;;;6323030;22;20872;-87
2021/08/19 12:39:19;;;;;;;1.17;1.07;;;23.00;95.10;;;;;;6321423;22;20449;-89
2021/08/19 12:41:46;;;;;;;1.63;1.00;;;23.20;95.50;;;;;;6293827;22;20384;-90
2021/08/19 12:44:17;;;;;;;1.30;1.20;;;23.00;95.50;;;;;;6319873;22;20384;-91
2021/08/19 12:46:45;;;;;;;1.23;0.60;;;23.00;95.30;;;;;;6321154;22;20747;-90
2021/08/19 12:49:34;;;;;;;0.93;0.83;;;22.90;94.00;;;;;;6316759;22;20393;-92
2021/08/19 12:52:16;;;;;;;1.00;0.90;;;22.90;94.90;;;;;;6319535;22;20407;-88
2021/08/19 12:54:57;;;;;;;0.87;0.70;;;23.20;94.30;;;;;;6320881;22;20391;-90